createdAt,value
2018-10-07T00:01:25.490Z,6.83
2018-10-07T00:03:55.113Z,7.90
2018-10-07T00:06:24.932Z,7.07
2018-10-07T00:08:54.977Z,5.70
2018-10-07T00:11:24.579Z,7.03
2018-10-07T00:13:55.209Z,8.27
2018-10-07T00:16:25.285Z,7.33
2018-10-07T00:18:54.937Z,6.20
2018-10-07T00:21:24.591Z,6.70
2018-10-07T00:24:06.327Z,6.60
2018-10-07T00:26:36.151Z,8.53
2018-10-07T00:29:12.930Z,7.40
2018-10-07T00:31:47.666Z,7.70
2018-10-07T00:34:18.689Z,8.57
2018-10-07T00:36:48.701Z,7.67
2018-10-07T00:39:18.373Z,7.00
2018-10-07T00:41:48.035Z,6.40
2018-10-07T00:44:19.669Z,6.83
2018-10-07T00:46:49.420Z,8.27
2018-10-07T00:49:19.087Z,8.40
2018-10-07T00:51:48.830Z,8.57
2018-10-07T00:54:19.904Z,7.47
2018-10-07T00:56:50.477Z,12.17
2018-10-07T00:59:22.896Z,8.10
2018-10-07T01:01:52.691Z,7.43
2018-10-07T01:04:22.485Z,9.77
2018-10-07T01:06:52.118Z,8.17
2018-10-07T01:09:23.324Z,7.87
2018-10-07T01:11:53.588Z,7.87
2018-10-07T01:14:23.387Z,8.57
2018-10-07T01:16:53.522Z,9.23
2018-10-07T01:19:24.344Z,9.77
2018-10-07T01:21:54.370Z,8.93
2018-10-07T01:24:24.060Z,9.60
2018-10-07T01:26:54.069Z,11.83
2018-10-07T01:29:24.657Z,9.70
2018-10-07T01:31:54.355Z,10.97
2018-10-07T01:34:24.076Z,13.33
2018-10-07T01:36:55.818Z,11.20
2018-10-07T01:39:26.232Z,12.60
2018-10-07T01:41:56.370Z,11.87
2018-10-07T01:44:26.047Z,11.23
2018-10-07T01:46:55.917Z,9.53
2018-10-07T01:49:27.822Z,10.33
2018-10-07T01:51:58.320Z,9.87
2018-10-07T01:54:28.608Z,10.87
2018-10-07T01:56:58.297Z,11.73
2018-10-07T01:59:29.345Z,8.30
2018-10-07T02:02:00.241Z,9.37
2018-10-07T02:04:33.298Z,11.17
2018-10-07T02:07:15.354Z,9.10
2018-10-07T02:10:18.252Z,10.87
2018-10-07T02:12:48.438Z,9.60
2018-10-07T02:15:38.236Z,10.80
2018-10-07T02:18:07.883Z,11.83
2018-10-07T02:20:41.450Z,11.27
2018-10-07T02:23:17.876Z,8.50
2018-10-07T02:25:47.905Z,8.60
2018-10-07T02:28:34.474Z,8.93
2018-10-07T02:31:24.806Z,8.10
2018-10-07T02:33:58.932Z,8.73
2018-10-07T02:36:29.126Z,9.20
2018-10-07T02:38:58.867Z,10.67
2018-10-07T02:41:28.529Z,9.07
2018-10-07T02:43:58.592Z,10.77
2018-10-07T02:46:28.299Z,10.70
2018-10-07T02:48:57.938Z,12.93
2018-10-07T02:51:27.601Z,9.47
2018-10-07T02:53:57.946Z,9.73
2018-10-07T02:56:27.806Z,12.23
2018-10-07T02:58:58.668Z,9.80
2018-10-07T03:01:28.277Z,11.33
2018-10-07T03:03:57.922Z,9.27
2018-10-07T03:06:27.591Z,9.50
2018-10-07T03:08:57.728Z,9.10
2018-10-07T03:11:28.378Z,8.93
2018-10-07T03:14:07.131Z,9.33
2018-10-07T03:16:46.644Z,10.13
2018-10-07T03:19:28.699Z,8.87
2018-10-07T03:22:00.434Z,9.13
2018-10-07T03:24:40.583Z,8.23
2018-10-07T03:27:16.534Z,9.37
2018-10-07T03:30:01.249Z,7.10
2018-10-07T03:32:31.401Z,7.93
2018-10-07T03:35:01.387Z,7.00
2018-10-07T03:37:31.225Z,7.60
2018-10-07T03:40:00.902Z,6.07
2018-10-07T03:42:30.633Z,7.93
2018-10-07T03:45:00.269Z,6.93
2018-10-07T03:47:30.256Z,5.80
2018-10-07T03:49:59.958Z,6.03
2018-10-07T03:52:29.726Z,7.80
2018-10-07T03:54:59.413Z,7.83
2018-10-07T03:57:29.377Z,7.27
2018-10-07T03:59:59.069Z,8.63
2018-10-07T04:02:29.074Z,6.83
2018-10-07T04:04:58.719Z,7.37
2018-10-07T04:07:28.404Z,7.37
2018-10-07T04:09:58.129Z,6.50
2018-10-07T04:12:27.773Z,7.70
2018-10-07T04:14:57.457Z,6.43
2018-10-07T04:17:27.119Z,8.13
2018-10-07T04:19:57.261Z,9.10
2018-10-07T04:22:26.932Z,8.67
2018-10-07T04:24:56.685Z,8.13
2018-10-07T04:27:26.870Z,8.23
2018-10-07T04:29:56.512Z,7.40
2018-10-07T04:32:26.219Z,9.10
2018-10-07T04:34:55.901Z,9.30
2018-10-07T04:37:25.532Z,8.90
2018-10-07T04:39:55.343Z,9.10
2018-10-07T04:42:31.286Z,7.80
2018-10-07T04:45:01.644Z,7.87
2018-10-07T04:47:31.317Z,8.10
2018-10-07T04:50:00.980Z,9.87
2018-10-07T04:52:30.642Z,9.50
2018-10-07T04:55:01.354Z,10.63
2018-10-07T04:57:33.911Z,8.30
2018-10-07T05:00:03.727Z,7.60
2018-10-07T05:02:33.417Z,9.03
2018-10-07T05:05:03.402Z,12.00
2018-10-07T05:07:33.157Z,8.17
2018-10-07T05:10:15.381Z,14.27
2018-10-07T05:12:45.747Z,7.63
2018-10-07T05:15:15.464Z,7.60
2018-10-07T05:17:45.186Z,7.93
2018-10-07T05:20:15.796Z,9.03
2018-10-07T05:22:45.501Z,8.30
2018-10-07T05:25:15.210Z,10.30
2018-10-07T05:27:45.391Z,8.53
2018-10-07T05:30:15.342Z,9.77
2018-10-07T05:32:45.417Z,9.90
2018-10-07T05:35:15.407Z,8.80
2018-10-07T05:37:45.097Z,8.47
2018-10-07T05:40:15.285Z,8.93
2018-10-07T05:42:44.981Z,9.57
2018-10-07T05:45:14.753Z,12.17
2018-10-07T05:47:45.006Z,13.47
2018-10-07T05:50:14.691Z,9.40
2018-10-07T05:52:44.357Z,14.50
2018-10-07T05:55:14.090Z,11.20
2018-10-07T05:57:48.727Z,9.80
2018-10-07T06:00:20.577Z,8.77
2018-10-07T06:02:50.331Z,9.23
2018-10-07T06:05:20.322Z,9.33
2018-10-07T06:07:49.983Z,9.87
2018-10-07T06:10:20.056Z,11.97
2018-10-07T06:12:56.913Z,9.57
2018-10-07T06:15:35.363Z,9.53
2018-10-07T06:18:15.241Z,11.00
2018-10-07T06:20:46.647Z,9.10
2018-10-07T06:23:17.337Z,9.87
2018-10-07T06:25:48.111Z,12.60
2018-10-07T06:28:17.785Z,10.40
2018-10-07T06:30:48.105Z,11.57
2018-10-07T06:33:19.333Z,9.17
2018-10-07T06:35:49.014Z,12.97
2018-10-07T06:38:18.727Z,10.43
2018-10-07T06:40:48.435Z,12.17
2018-10-07T06:43:19.224Z,12.90
2018-10-07T06:45:50.724Z,10.40
2018-10-07T06:48:20.566Z,12.73
2018-10-07T06:50:50.385Z,14.37
2018-10-07T06:53:20.269Z,12.97
2018-10-07T06:55:50.121Z,13.60
2018-10-07T06:58:20.328Z,10.43
2018-10-07T07:00:50.050Z,12.20
2018-10-07T07:03:19.790Z,12.23
2018-10-07T07:05:49.522Z,11.63
2018-10-07T07:08:20.742Z,12.33
2018-10-07T07:10:51.409Z,10.97
2018-10-07T07:13:22.039Z,12.00
2018-10-07T07:15:51.921Z,10.47
2018-10-07T07:18:21.608Z,14.93
2018-10-07T07:20:51.413Z,12.43
2018-10-07T07:23:22.133Z,10.03
2018-10-07T07:25:52.725Z,9.57
2018-10-07T07:28:23.118Z,10.47
2018-10-07T07:30:55.288Z,11.50
2018-10-07T07:33:27.527Z,8.03
2018-10-07T07:35:57.238Z,7.80
2018-10-07T07:38:29.243Z,8.83
2018-10-07T07:40:59.741Z,10.17
2018-10-07T07:43:32.443Z,12.57
2018-10-07T07:46:03.689Z,12.10
2018-10-07T07:48:33.986Z,9.93
2018-10-07T07:51:07.326Z,11.17
2018-10-07T07:53:37.104Z,10.17
2018-10-07T07:56:23.267Z,14.97
2018-10-07T07:58:52.978Z,15.27
2018-10-07T08:01:35.484Z,12.73
2018-10-07T08:04:05.201Z,15.00
2018-10-07T08:06:35.275Z,15.07
2018-10-07T08:09:08.323Z,13.53
2018-10-07T08:11:38.412Z,16.33
2018-10-07T08:14:08.303Z,18.40
2018-10-07T08:16:38.249Z,18.57
2018-10-07T08:19:07.973Z,26.17
2018-10-07T08:21:37.697Z,20.87
2018-10-07T08:24:07.346Z,18.27
2018-10-07T08:26:38.200Z,20.90
2018-10-07T08:29:28.553Z,19.87
2018-10-07T08:31:59.758Z,21.60
2018-10-07T08:34:30.507Z,20.57
2018-10-07T08:37:02.482Z,19.60
2018-10-07T08:39:33.685Z,19.60
2018-10-07T08:42:03.722Z,19.30
2018-10-07T08:44:36.172Z,19.70
2018-10-07T08:47:06.164Z,20.90
2018-10-07T08:49:36.272Z,25.57
2018-10-07T08:52:06.405Z,19.70
2018-10-07T08:54:36.915Z,19.13
2018-10-07T08:57:06.661Z,21.67
2018-10-07T08:59:36.575Z,23.80
2018-10-07T09:02:06.786Z,21.87
2018-10-07T09:04:42.552Z,26.37
2018-10-07T09:07:18.424Z,26.43
2018-10-07T09:09:49.725Z,29.73
2018-10-07T09:12:19.422Z,29.13
2018-10-07T09:14:49.897Z,30.47
2018-10-07T09:17:20.438Z,31.17
2018-10-07T09:19:55.333Z,33.53
2018-10-07T09:22:27.313Z,34.83
2018-10-07T09:24:58.393Z,39.40
2018-10-07T09:27:28.657Z,42.87
2018-10-07T09:29:58.989Z,37.30
2018-10-07T09:32:28.823Z,40.23
2018-10-07T09:35:01.422Z,43.27
2018-10-07T09:37:31.150Z,38.67
2018-10-07T09:40:00.819Z,46.07
2018-10-07T09:42:30.876Z,45.20
2018-10-07T09:45:00.529Z,44.27
2018-10-07T09:47:30.299Z,47.77
2018-10-07T09:50:00.456Z,47.17
2018-10-07T09:52:32.292Z,51.43
2018-10-07T09:55:02.113Z,46.60
2018-10-07T09:57:33.502Z,50.30
2018-10-07T10:00:03.253Z,50.83
2018-10-07T10:02:34.510Z,57.53
2018-10-07T10:05:04.433Z,50.63
2018-10-07T10:07:35.238Z,58.20
2018-10-07T10:10:07.351Z,53.77
2018-10-07T10:12:44.432Z,55.23
2018-10-07T10:15:15.013Z,56.90
2018-10-07T10:17:49.271Z,51.93
2018-10-07T10:20:23.481Z,60.17
2018-10-07T10:23:06.562Z,57.13
2018-10-07T10:27:16.910Z,64.30
2018-10-07T10:29:50.954Z,95.73
2018-10-07T10:32:28.371Z,80.63
2018-10-07T10:35:12.383Z,81.63
2018-10-07T10:37:51.860Z,82.93
2018-10-07T10:40:29.373Z,88.73
2018-10-07T10:43:14.468Z,87.57
2018-10-07T10:46:12.152Z,108.13
2018-10-07T10:48:50.065Z,80.70
2018-10-07T10:51:29.530Z,72.70
2018-10-07T10:56:10.807Z,72.93
2018-10-07T10:59:19.353Z,63.67
2018-10-07T11:02:04.235Z,67.97
2018-10-07T11:04:49.876Z,76.57
2018-10-07T11:07:23.530Z,65.90
2018-10-07T11:11:01.395Z,60.50
2018-10-07T11:13:38.781Z,58.20
2018-10-07T11:16:16.670Z,59.13
2018-10-07T11:18:55.321Z,61.33
2018-10-07T11:21:36.636Z,56.23
2018-10-07T11:24:19.300Z,62.43
2018-10-07T11:26:58.709Z,59.03
2018-10-07T11:30:41.376Z,61.93
2018-10-07T11:34:52.243Z,59.47
2018-10-07T11:37:32.984Z,58.70
2018-10-07T11:40:15.548Z,61.77
2018-10-07T11:43:07.366Z,54.57
2018-10-07T11:45:45.393Z,57.17
2018-10-07T11:48:30.212Z,54.13
2018-10-07T11:51:06.747Z,57.53
2018-10-07T11:53:45.436Z,55.67
2018-10-07T11:56:17.429Z,52.77
2018-10-07T11:58:48.166Z,59.37
2018-10-07T12:01:20.704Z,62.67
2018-10-07T12:03:52.064Z,58.40
2018-10-07T12:06:25.021Z,63.83
2018-10-07T12:08:55.704Z,65.30
2018-10-07T12:11:25.852Z,68.80
2018-10-07T12:14:11.901Z,69.17
2018-10-07T12:16:44.854Z,64.90
2018-10-07T12:19:17.148Z,65.03
2018-10-07T12:21:51.362Z,67.40
2018-10-07T12:24:22.495Z,63.90
2018-10-07T12:26:52.777Z,62.10
2018-10-07T12:29:22.926Z,63.47
2018-10-07T12:31:57.848Z,61.13
2018-10-07T12:34:29.354Z,62.83
2018-10-07T12:37:00.480Z,59.57
2018-10-07T12:39:31.533Z,59.33
2018-10-07T12:42:03.768Z,59.57
2018-10-07T12:44:35.834Z,57.27
2018-10-07T12:47:06.452Z,60.10
2018-10-07T12:49:38.241Z,58.50
2018-10-07T12:52:11.502Z,55.53
2018-10-07T12:54:42.426Z,55.63
2018-10-07T12:57:13.110Z,53.93
2018-10-07T12:59:44.590Z,55.27
2018-10-07T13:09:13.442Z,45.03
2018-10-07T13:11:45.051Z,47.07
2018-10-07T13:14:18.117Z,48.83
2018-10-07T13:16:50.007Z,47.73
2018-10-07T13:19:20.311Z,51.20
2018-10-07T13:21:51.534Z,49.67
2018-10-07T13:24:23.615Z,53.30
2018-10-07T13:26:57.994Z,55.87
2018-10-07T13:29:29.335Z,52.33
2018-10-07T13:32:01.036Z,55.07
2018-10-07T13:34:31.353Z,55.43
2018-10-07T13:37:02.659Z,54.60
2018-10-07T13:39:34.728Z,35.87
2018-10-07T13:42:06.478Z,34.00
2018-10-07T13:44:39.525Z,32.17
2018-10-07T13:47:09.623Z,23.53
2018-10-07T13:49:41.313Z,24.50
2018-10-07T13:52:12.597Z,26.63
2018-10-07T13:54:43.659Z,19.87
2018-10-07T13:57:14.407Z,19.27
2018-10-07T13:59:50.415Z,19.37
2018-10-07T14:02:23.049Z,17.57
2018-10-07T14:04:54.397Z,18.07
2018-10-07T14:07:24.616Z,16.80
2018-10-07T14:09:56.006Z,19.10
2018-10-07T14:12:26.737Z,16.00
2018-10-07T14:14:57.282Z,16.30
2018-10-07T14:17:32.307Z,18.77
2018-10-07T14:20:04.837Z,18.03
2018-10-07T14:22:36.345Z,20.63
2018-10-07T14:25:07.135Z,18.03
2018-10-07T14:27:39.799Z,19.37
2018-10-07T14:30:12.288Z,19.27
2018-10-07T14:32:42.982Z,20.80
2018-10-07T14:35:13.904Z,20.33
2018-10-07T14:37:45.427Z,20.53
2018-10-07T14:40:19.724Z,23.00
2018-10-07T14:42:51.601Z,23.57
2018-10-07T14:45:21.903Z,21.23
2018-10-07T14:47:56.338Z,21.83
2018-10-07T14:50:27.597Z,21.13
2018-10-07T14:52:57.641Z,21.00
2018-10-07T14:55:28.726Z,18.63
2018-10-07T14:58:01.585Z,22.93
2018-10-07T15:00:32.760Z,20.10
2018-10-07T15:03:04.629Z,17.73
2018-10-07T15:05:37.488Z,21.47
2018-10-07T15:08:25.459Z,18.77
2018-10-07T15:10:55.737Z,22.27
2018-10-07T15:13:28.517Z,21.47
2018-10-07T15:15:59.832Z,23.23
2018-10-07T15:18:30.483Z,29.30
2018-10-07T15:21:03.021Z,23.00
2018-10-07T15:23:35.639Z,24.17
2018-10-07T15:26:07.559Z,27.73
2018-10-07T15:28:43.577Z,19.87
2018-10-07T15:31:16.507Z,23.87
2018-10-07T15:33:48.966Z,21.03
2018-10-07T15:36:20.623Z,21.20
2018-10-07T15:38:50.737Z,17.23
2018-10-07T15:41:20.872Z,16.47
2018-10-07T15:46:54.463Z,10.87
2018-10-07T15:50:01.687Z,13.30
2018-10-07T15:52:52.941Z,20.27
2018-10-07T15:55:26.575Z,14.20
2018-10-07T15:57:58.709Z,18.07
2018-10-07T16:00:29.415Z,13.53
2018-10-07T16:03:00.314Z,12.07
2018-10-07T16:05:30.380Z,18.83
2018-10-07T16:08:11.528Z,14.03
2018-10-07T16:10:42.549Z,20.17
2018-10-07T16:13:17.140Z,15.30
2018-10-07T16:15:47.273Z,12.53
2018-10-07T16:18:17.611Z,12.73
2018-10-07T16:20:49.103Z,13.23
2018-10-07T16:23:19.403Z,22.73
2018-10-07T16:25:50.669Z,15.30
2018-10-07T16:28:20.969Z,11.87
2018-10-07T16:30:56.343Z,15.83
2018-10-07T16:33:27.677Z,13.40
2018-10-07T16:36:03.171Z,17.83
2018-10-07T16:38:34.430Z,15.50
2018-10-07T16:41:05.443Z,10.97
2018-10-07T16:43:37.535Z,15.00
2018-10-07T16:46:17.688Z,10.00
2018-10-07T16:48:49.698Z,11.20
2018-10-07T16:51:22.950Z,12.20
2018-10-07T16:53:56.723Z,10.23
2018-10-07T16:56:28.465Z,12.93
2018-10-07T16:58:59.347Z,13.03
2018-10-07T17:01:30.245Z,10.77
2018-10-07T17:04:00.357Z,12.77
2018-10-07T17:06:32.283Z,13.03
2018-10-07T17:09:05.069Z,8.30
2018-10-07T17:11:36.185Z,9.03
2018-10-07T17:14:10.770Z,11.07
2018-10-07T17:16:41.385Z,9.33
2018-10-07T17:19:12.465Z,13.13
2018-10-07T17:21:44.435Z,9.87
2018-10-07T17:24:19.580Z,9.63
2018-10-07T17:26:54.615Z,10.30
2018-10-07T17:29:33.426Z,9.70
2018-10-07T17:32:05.987Z,8.40
2018-10-07T17:34:40.681Z,9.13
2018-10-07T17:37:16.289Z,9.80
2018-10-07T17:39:48.466Z,6.87
2018-10-07T17:42:20.637Z,7.13
2018-10-07T17:44:58.006Z,9.10
2018-10-07T17:47:32.243Z,7.73
2018-10-07T17:50:06.276Z,8.03
2018-10-07T17:52:41.382Z,7.80
2018-10-07T17:55:14.097Z,10.00
2018-10-07T17:57:44.592Z,9.67
2018-10-07T18:00:21.122Z,8.33
2018-10-07T18:02:51.516Z,7.83
2018-10-07T18:05:22.096Z,9.97
2018-10-07T18:07:53.771Z,7.87
2018-10-07T18:10:24.493Z,7.07
2018-10-07T18:12:57.405Z,7.97
2018-10-07T18:15:33.336Z,7.07
2018-10-07T18:18:04.357Z,6.97
2018-10-07T18:20:37.339Z,7.77
2018-10-07T18:23:10.805Z,7.57
2018-10-07T18:25:41.677Z,8.07
2018-10-07T18:28:13.702Z,10.00
2018-10-07T18:30:45.166Z,7.00
2018-10-07T18:33:15.816Z,7.70
2018-10-07T18:38:23.476Z,7.93
2018-10-07T18:40:56.676Z,7.20
2018-10-07T18:43:29.675Z,9.73
2018-10-07T18:46:01.138Z,7.17
2018-10-07T18:48:31.548Z,7.20
2018-10-07T18:51:03.545Z,7.03
2018-10-07T18:53:35.566Z,8.13
2018-10-07T18:56:10.955Z,8.10
2018-10-07T18:58:42.175Z,8.93
2018-10-07T19:01:13.322Z,8.90
2018-10-07T19:03:44.525Z,7.97
2018-10-07T19:06:16.706Z,6.83
2018-10-07T19:08:47.416Z,10.60
2018-10-07T19:11:24.354Z,7.07
2018-10-07T19:13:56.499Z,9.27
2018-10-07T19:16:28.444Z,8.07
2018-10-07T19:18:59.782Z,6.90
2018-10-07T19:21:34.265Z,7.93
2018-10-07T19:24:04.385Z,7.50
2018-10-07T19:26:36.449Z,10.40
2018-10-07T19:29:07.629Z,8.97
2018-10-07T19:31:41.544Z,7.30
2018-10-07T19:34:13.503Z,7.37
2018-10-07T19:36:49.442Z,7.20
2018-10-07T19:39:25.788Z,8.93
2018-10-07T19:41:57.843Z,8.23
2018-10-07T19:44:29.410Z,9.90
2018-10-07T19:47:01.426Z,6.73
2018-10-07T19:49:35.995Z,8.00
2018-10-07T19:52:08.839Z,6.77
2018-10-07T19:54:40.846Z,6.63
2018-10-07T19:57:14.949Z,6.70
2018-10-07T19:59:47.499Z,6.57
2018-10-07T20:02:19.748Z,10.87
2018-10-07T20:04:51.544Z,7.00
2018-10-07T20:07:22.636Z,10.20
2018-10-07T20:09:52.786Z,7.13
2018-10-07T20:12:25.384Z,8.57
2018-10-07T20:15:00.161Z,7.73
2018-10-07T20:17:31.390Z,8.30
2018-10-07T20:20:03.293Z,7.60
2018-10-07T20:22:34.023Z,9.03
2018-10-07T20:25:05.490Z,7.77
2018-10-07T20:27:35.223Z,7.67
2018-10-07T20:30:06.105Z,8.63
2018-10-07T20:32:43.458Z,8.80
2018-10-07T20:35:14.466Z,10.53
2018-10-07T20:37:46.457Z,10.90
2018-10-07T20:40:16.161Z,10.00
2018-10-07T20:42:46.793Z,8.27
2018-10-07T20:45:19.561Z,8.93
2018-10-07T20:47:50.690Z,9.77
2018-10-07T20:50:20.437Z,9.27
2018-10-07T20:56:11.278Z,8.30
2018-10-07T20:58:45.386Z,9.37
2018-10-07T21:01:19.173Z,7.07
2018-10-07T21:03:50.309Z,8.47
2018-10-07T21:06:25.261Z,9.17
2018-10-07T21:08:55.701Z,6.73
2018-10-07T21:11:30.857Z,6.50
2018-10-07T21:14:00.504Z,7.57
2018-10-07T21:16:31.022Z,9.90
2018-10-07T21:19:00.886Z,6.57
2018-10-07T21:21:31.401Z,10.17
2018-10-07T21:24:01.516Z,6.17
2018-10-07T21:26:31.485Z,10.17
2018-10-07T21:29:01.412Z,6.80
2018-10-07T21:31:31.381Z,8.13
2018-10-07T21:34:02.311Z,7.83
2018-10-07T21:36:40.183Z,9.70
2018-10-07T21:39:11.357Z,10.30
2018-10-07T21:41:41.064Z,8.17
2018-10-07T21:44:14.598Z,8.77
2018-10-07T21:46:48.076Z,7.83
2018-10-07T21:49:17.690Z,7.00
2018-10-07T21:51:49.295Z,8.97
2018-10-07T21:54:18.965Z,7.23
2018-10-07T21:56:49.326Z,8.43
2018-10-07T21:59:19.813Z,11.20
2018-10-07T22:01:49.438Z,11.93
2018-10-07T22:04:19.060Z,7.77
2018-10-07T22:06:49.531Z,8.87
2018-10-07T22:09:19.180Z,8.50
2018-10-07T22:11:48.845Z,8.57
2018-10-07T22:14:23.465Z,10.17
2018-10-07T22:16:53.101Z,9.03
2018-10-07T22:19:23.113Z,9.77
2018-10-07T22:21:52.729Z,7.90
2018-10-07T22:24:22.357Z,10.60
2018-10-07T22:26:52.025Z,7.77
2018-10-07T22:29:22.177Z,8.57
2018-10-07T22:31:52.374Z,11.83
2018-10-07T22:34:23.593Z,8.20
2018-10-07T22:36:54.362Z,9.90
2018-10-07T22:39:25.390Z,7.70
2018-10-07T22:41:55.037Z,8.43
2018-10-07T22:44:26.020Z,9.00
2018-10-07T22:46:56.430Z,9.07
2018-10-07T22:56:10.912Z,9.53
2018-10-07T22:58:42.200Z,7.53
2018-10-07T23:01:14.967Z,8.30
2018-10-07T23:03:46.557Z,8.00
2018-10-07T23:06:17.420Z,8.47
2018-10-07T23:08:48.065Z,8.40
2018-10-07T23:11:19.341Z,8.53
2018-10-07T23:13:51.273Z,9.57
2018-10-07T23:16:23.278Z,11.97
2018-10-07T23:18:53.313Z,13.50
2018-10-07T23:21:23.985Z,9.13
2018-10-07T23:23:53.583Z,10.43
2018-10-07T23:26:23.188Z,12.50
2018-10-07T23:28:53.187Z,12.17
2018-10-07T23:31:22.813Z,11.97
2018-10-07T23:33:53.097Z,10.00
2018-10-07T23:36:23.376Z,11.73
2018-10-07T23:38:54.017Z,13.07
2018-10-07T23:41:24.324Z,13.20
2018-10-07T23:43:57.948Z,11.17
2018-10-07T23:46:27.570Z,12.13
2018-10-07T23:48:58.149Z,8.90
2018-10-07T23:51:29.062Z,10.73
2018-10-07T23:53:58.764Z,11.13
2018-10-07T23:56:28.402Z,10.87
2018-10-07T23:58:58.229Z,13.87
